Time;durP1;ratioP1;P1;durP2;ratioP2;P2;SDS_P1;SDS_P2;PMS_P1;PMS_P2;Temp;Humidity;BMP_temperature;BMP_pressure;BME280_temperature;BME280_humidity;BME280_pressure;Samples;Min_cycle;Max_cycle;Signal;HPM_P1;HPM_P2
2022/06/22 00:01:26;;;;;;;14.00;11.10;;;12.50;99.90;;;;;;4985782;28;20065;-67
2022/06/22 00:03:55;;;;;;;17.15;12.82;;;12.50;99.90;;;;;;4992362;28;20058;-67
2022/06/22 00:06:37;;;;;;;14.25;11.82;;;12.40;99.90;;;;;;4977649;28;20129;-67
2022/06/22 00:09:04;;;;;;;16.70;11.82;;;12.40;99.90;;;;;;4988055;28;20070;-67
2022/06/22 00:11:30;;;;;;;14.77;11.52;;;12.40;99.90;;;;;;4993400;28;20074;-67
2022/06/22 00:13:59;;;;;;;18.30;11.45;;;12.40;99.90;;;;;;4976329;28;20085;-67
2022/06/22 00:16:36;;;;;;;17.60;12.75;;;12.40;99.90;;;;;;4975880;28;20365;-67
2022/06/22 00:19:19;;;;;;;14.38;11.50;;;12.30;99.90;;;;;;4982404;28;20051;-67
2022/06/22 00:21:48;;;;;;;15.18;10.93;;;12.30;99.90;;;;;;4979551;28;20038;-67
2022/06/22 00:24:22;;;;;;;15.95;11.60;;;12.20;99.90;;;;;;4995771;28;20353;-67
2022/06/22 00:26:53;;;;;;;;;;;12.30;99.90;;;;;;4995202;28;21279;-67
2022/06/22 00:29:23;;;;;;;15.15;11.23;;;12.20;99.90;;;;;;4979863;28;20431;-67
2022/06/22 00:31:48;;;;;;;16.17;12.65;;;12.20;99.90;;;;;;4962980;28;20050;-67
2022/06/22 00:34:33;;;;;;;12.80;11.25;;;12.20;99.90;;;;;;4995383;28;20050;-67
2022/06/22 00:37:04;;;;;;;17.77;12.27;;;12.20;99.90;;;;;;4994411;28;20057;-67
2022/06/22 00:39:29;;;;;;;17.42;12.48;;;12.10;99.90;;;;;;4979194;28;20350;-67
2022/06/22 00:42:21;;;;;;;17.65;12.73;;;12.20;99.90;;;;;;4980040;28;20050;-67
2022/06/22 00:44:50;;;;;;;14.63;11.60;;;12.20;99.90;;;;;;4997814;28;20078;-67
2022/06/22 00:47:26;;;;;;;19.65;13.50;;;12.20;99.90;;;;;;4999053;28;20060;-67
2022/06/22 00:50:00;;;;;;;20.88;12.63;;;12.10;99.90;;;;;;4982086;28;20089;-67
2022/06/22 00:52:39;;;;;;;16.67;13.33;;;12.10;99.90;;;;;;4990412;28;20469;-67
2022/06/22 00:55:26;;;;;;;15.50;13.05;;;12.00;99.90;;;;;;4989889;28;20456;-67
2022/06/22 00:58:18;;;;;;;15.90;12.32;;;12.00;99.90;;;;;;4995910;28;20383;-67
2022/06/22 01:00:54;;;;;;;15.75;12.23;;;12.00;99.90;;;;;;4964283;28;20059;-67
2022/06/22 01:03:34;;;;;;;16.25;13.02;;;12.00;99.90;;;;;;4960142;28;20058;-67
2022/06/22 01:06:07;;;;;;;18.58;12.88;;;12.00;99.90;;;;;;4979886;28;20412;-67
2022/06/22 01:08:45;;;;;;;18.27;12.13;;;12.00;99.90;;;;;;4969319;28;20043;-67
2022/06/22 01:14:24;;;;;;;15.88;11.45;;;12.00;99.90;;;;;;4966627;28;20381;-67
2022/06/22 01:16:53;;;;;;;16.73;11.93;;;12.00;99.90;;;;;;4978709;28;20365;-67
2022/06/22 01:19:39;;;;;;;16.92;12.68;;;12.00;99.90;;;;;;4963543;28;20043;-67
2022/06/22 01:22:10;;;;;;;15.38;12.38;;;11.90;99.90;;;;;;4959999;29;20047;-67
2022/06/22 01:24:59;;;;;;;15.10;12.63;;;12.00;99.90;;;;;;4969695;28;20046;-67
2022/06/22 01:27:39;;;;;;;16.05;12.50;;;11.90;99.90;;;;;;4974342;28;20053;-67
2022/06/22 01:30:31;;;;;;;16.02;13.70;;;11.90;99.90;;;;;;4959987;29;20047;-67
2022/06/22 01:32:57;;;;;;;14.98;13.02;;;11.90;99.90;;;;;;4956357;29;20095;-67
2022/06/22 01:35:29;;;;;;;13.70;12.18;;;11.90;99.90;;;;;;4975302;28;20509;-67
2022/06/22 01:37:55;;;;;;;16.80;12.88;;;11.90;99.90;;;;;;4971458;28;20058;-67
2022/06/22 01:40:24;;;;;;;15.23;11.45;;;11.90;99.90;;;;;;4974600;28;20042;-67
2022/06/22 01:42:57;;;;;;;14.82;12.13;;;11.90;99.90;;;;;;4979002;28;20105;-67
2022/06/22 01:45:28;;;;;;;17.45;11.57;;;11.90;99.90;;;;;;4962913;28;20039;-67
2022/06/22 01:48:10;;;;;;;14.25;11.55;;;11.90;99.90;;;;;;4962739;28;20070;-67
2022/06/22 01:50:51;;;;;;;16.05;11.20;;;11.90;99.90;;;;;;4959521;29;20362;-67
2022/06/22 01:53:20;;;;;;;16.88;11.77;;;12.00;99.90;;;;;;4959368;29;20055;-67
2022/06/22 01:56:01;;;;;;;16.70;11.75;;;12.00;99.90;;;;;;4976406;28;20509;-67
2022/06/22 01:58:59;;;;;;;18.13;11.98;;;11.90;99.90;;;;;;4976276;28;20082;-67
2022/06/22 02:01:37;;;;;;;13.82;11.18;;;11.90;99.90;;;;;;4997996;28;20050;-67
2022/06/22 02:04:35;;;;;;;15.63;10.70;;;11.90;99.90;;;;;;4993310;28;20043;-67
2022/06/22 02:07:44;;;;;;;14.05;11.32;;;11.80;99.90;;;;;;4974048;28;20157;-67
2022/06/22 02:10:37;;;;;;;16.67;10.98;;;11.70;99.90;;;;;;4978357;28;20186;-67
2022/06/22 02:13:22;;;;;;;13.63;11.77;;;11.80;99.90;;;;;;4978314;28;20078;-67
2022/06/22 02:16:14;;;;;;;15.88;10.68;;;11.80;99.90;;;;;;4991512;28;20062;-67
2022/06/22 02:18:48;;;;;;;16.58;11.52;;;11.90;99.90;;;;;;4988388;28;20077;-67
2022/06/22 02:21:24;;;;;;;15.73;11.73;;;11.80;99.90;;;;;;4997856;28;20129;-67
2022/06/22 02:23:57;;;;;;;18.42;12.55;;;11.80;99.90;;;;;;4994969;28;20085;-67
2022/06/22 02:26:33;;;;;;;17.60;12.80;;;11.80;99.90;;;;;;4986331;28;20122;-67
2022/06/22 02:28:58;;;;;;;16.00;12.32;;;11.80;99.90;;;;;;4978408;28;20047;-67
2022/06/22 02:31:26;;;;;;;15.23;12.00;;;11.80;99.90;;;;;;4977936;28;20464;-67
2022/06/22 02:33:55;;;;;;;15.25;12.50;;;11.70;99.90;;;;;;4979988;28;20405;-67
2022/06/22 02:36:23;;;;;;;15.40;11.50;;;11.80;99.90;;;;;;4995178;28;20113;-67
2022/06/22 02:38:49;;;;;;;14.35;12.50;;;11.70;99.90;;;;;;4997444;28;20061;-67
2022/06/22 02:46:47;;;;;;;16.70;12.68;;;11.70;99.90;;;;;;4984760;28;20038;-67
2022/06/22 02:49:35;;;;;;;16.30;11.90;;;11.70;99.90;;;;;;4997263;28;20065;-67
2022/06/22 02:52:02;;;;;;;16.63;11.82;;;11.80;99.90;;;;;;4997071;28;20074;-67
2022/06/22 02:54:38;;;;;;;13.18;11.45;;;11.70;99.90;;;;;;4973800;28;20050;-67
2022/06/22 02:57:37;;;;;;;14.70;11.05;;;11.70;99.90;;;;;;4983150;28;20058;-67
2022/06/22 03:00:05;;;;;;;14.35;12.73;;;11.80;99.90;;;;;;4967010;28;20477;-67
2022/06/22 03:02:30;;;;;;;17.33;13.15;;;11.70;99.90;;;;;;4958132;29;20039;-67
2022/06/22 03:04:58;;;;;;;16.63;12.10;;;11.70;99.90;;;;;;4968196;28;20047;-67
2022/06/22 03:07:25;;;;;;;15.45;11.65;;;11.70;99.90;;;;;;4960631;28;20047;-67
2022/06/22 03:09:52;;;;;;;18.95;13.00;;;11.70;99.90;;;;;;4957995;29;20066;-67
2022/06/22 03:12:18;;;;;;;16.85;12.70;;;11.80;99.90;;;;;;4958047;29;20105;-67
2022/06/22 03:15:00;;;;;;;16.23;12.93;;;11.70;99.90;;;;;;4966074;28;20042;-67
2022/06/22 03:17:39;;;;;;;16.10;12.38;;;11.70;99.90;;;;;;4962041;28;20148;-67
2022/06/22 03:20:12;;;;;;;18.45;12.50;;;11.70;99.90;;;;;;4968389;28;20047;-67
2022/06/22 03:23:15;;;;;;;15.52;12.40;;;11.60;99.90;;;;;;4957770;29;20386;-67
2022/06/22 03:25:51;;;;;;;15.02;12.88;;;11.60;99.90;;;;;;4972074;28;20055;-67
2022/06/22 03:28:22;;;;;;;15.65;12.13;;;11.50;99.90;;;;;;4968662;28;20047;-67
2022/06/22 03:30:56;;;;;;;15.85;12.05;;;11.60;99.90;;;;;;4957591;29;20051;-67
2022/06/22 03:33:32;;;;;;;14.70;11.70;;;11.60;99.90;;;;;;4957476;29;20458;-67
2022/06/22 03:36:14;;;;;;;16.38;12.23;;;11.60;99.90;;;;;;4974843;28;20058;-67
2022/06/22 03:38:48;;;;;;;15.63;11.60;;;11.60;99.90;;;;;;4967904;28;20043;-67
2022/06/22 03:41:23;;;;;;;16.30;11.27;;;11.60;99.90;;;;;;4961609;28;20043;-67
2022/06/22 03:44:05;;;;;;;13.25;10.73;;;11.60;99.90;;;;;;4968420;28;20125;-67
2022/06/22 03:46:36;;;;;;;15.63;11.40;;;11.60;99.90;;;;;;4957475;29;20055;-67
2022/06/22 03:49:07;;;;;;;17.55;12.50;;;11.70;99.90;;;;;;4966857;28;20057;-67
2022/06/22 03:52:03;;;;;;;14.93;12.25;;;11.70;99.90;;;;;;4976700;28;20146;-66
2022/06/22 03:55:00;;;;;;;14.07;11.70;;;11.70;99.90;;;;;;4969937;28;20043;-67
2022/06/22 03:57:29;;;;;;;16.33;13.40;;;11.60;99.90;;;;;;4957184;28;20130;-67
2022/06/22 03:59:56;;;;;;;16.38;12.02;;;11.60;99.90;;;;;;4964371;28;20097;-67
2022/06/22 04:02:24;;;;;;;17.67;13.18;;;11.60;99.90;;;;;;4976492;28;20051;-67
2022/06/22 04:04:53;;;;;;;17.67;13.32;;;11.60;99.90;;;;;;4967782;28;20047;-67
2022/06/22 04:07:19;;;;;;;17.60;12.60;;;11.60;99.90;;;;;;4968554;28;20066;-67
2022/06/22 04:09:53;;;;;;;21.60;15.20;;;11.60;99.90;;;;;;4972834;28;20369;-67
2022/06/22 04:12:25;;;;;;;20.15;13.45;;;11.70;99.90;;;;;;4976277;28;20053;-67
2022/06/22 04:15:29;;;;;;;16.58;13.88;;;11.60;99.90;;;;;;4963353;28;20089;-67
2022/06/22 04:18:01;;;;;;;19.48;13.63;;;11.70;99.90;;;;;;4969482;28;20501;-67
2022/06/22 04:20:52;;;;;;;15.75;13.30;;;11.70;99.90;;;;;;4956228;29;20450;-67
2022/06/22 04:23:23;;;;;;;15.88;12.20;;;11.80;99.90;;;;;;4940006;29;20117;-67
2022/06/22 04:25:50;;;;;;;16.60;13.57;;;11.80;99.90;;;;;;4970950;28;20129;-67
2022/06/22 04:28:19;;;;;;;19.80;14.18;;;11.80;99.90;;;;;;4969708;28;20051;-67
2022/06/22 04:30:48;;;;;;;19.58;13.50;;;11.80;99.90;;;;;;4956443;29;20058;-66
2022/06/22 04:33:36;;;;;;;16.33;12.77;;;11.90;99.90;;;;;;4956668;29;20050;-67
2022/06/22 04:36:17;;;;;;;16.40;13.05;;;11.90;99.90;;;;;;4972998;28;20047;-67
2022/06/22 04:39:14;;;;;;;16.10;12.35;;;12.00;99.90;;;;;;4966445;28;20062;-67
2022/06/22 04:41:42;;;;;;;17.67;13.65;;;12.00;99.90;;;;;;4956560;29;20043;-67
2022/06/22 04:44:22;;;;;;;19.55;13.73;;;12.10;99.90;;;;;;4958178;28;20047;-67
2022/06/22 04:47:11;;;;;;;16.88;13.48;;;12.10;99.90;;;;;;4956671;28;20051;-67
2022/06/22 04:49:47;;;;;;;22.00;15.10;;;12.10;99.90;;;;;;4956795;28;20111;-66
2022/06/22 04:52:38;;;;;;;19.00;12.75;;;12.20;99.90;;;;;;4956565;29;20354;-67
2022/06/22 04:55:06;;;;;;;14.05;11.80;;;12.20;99.90;;;;;;4964545;28;20062;-67
2022/06/22 04:57:37;;;;;;;17.98;13.68;;;12.30;99.90;;;;;;4975676;28;20580;-67
2022/06/22 05:00:18;;;;;;;18.23;13.88;;;12.30;99.90;;;;;;4955845;28;20082;-67
2022/06/22 05:02:46;;;;;;;19.10;13.40;;;12.40;99.90;;;;;;4975804;28;20042;-65
2022/06/22 05:05:23;;;;;;;16.50;13.57;;;12.40;99.90;;;;;;4965440;28;20047;-65
2022/06/22 05:07:56;;;;;;;20.80;13.48;;;12.40;99.90;;;;;;4958090;28;20129;-66
2022/06/22 05:10:45;;;;;;;19.20;13.88;;;12.50;99.90;;;;;;4975381;28;20047;-66
2022/06/22 05:13:42;;;;;;;18.73;12.40;;;12.50;99.90;;;;;;4974809;28;20468;-65
2022/06/22 05:16:13;;;;;;;21.25;13.95;;;12.60;99.90;;;;;;4964286;28;20058;-66
2022/06/22 05:18:41;;;;;;;22.70;14.20;;;12.70;99.90;;;;;;4967194;28;20438;-66
2022/06/22 05:21:38;;;;;;;17.50;13.00;;;12.70;99.90;;;;;;4958100;28;20072;-64
2022/06/22 05:24:20;;;;;;;20.30;12.88;;;12.80;99.90;;;;;;4965957;28;20057;-67
2022/06/22 05:26:48;;;;;;;19.38;14.20;;;12.90;99.90;;;;;;4975067;28;20101;-66
2022/06/22 05:29:32;;;;;;;22.05;13.13;;;13.00;99.90;;;;;;4974595;28;20484;-67
2022/06/22 05:32:05;;;;;;;18.85;11.45;;;13.10;99.90;;;;;;4979129;28;20117;-64
2022/06/22 05:34:34;;;;;;;19.33;12.18;;;13.10;99.90;;;;;;4978416;28;20469;-64
2022/06/22 05:37:22;;;;;;;21.88;13.35;;;13.20;99.90;;;;;;4978546;28;20473;-65
2022/06/22 05:39:48;;;;;;;16.42;10.60;;;13.20;99.90;;;;;;4977889;28;20145;-65
2022/06/22 05:42:15;;;;;;;14.90;10.90;;;13.30;99.90;;;;;;4978905;28;20097;-64
2022/06/22 05:44:42;;;;;;;15.05;10.85;;;13.40;99.90;;;;;;4978957;28;20051;-64
2022/06/22 05:47:15;;;;;;;17.52;10.77;;;13.50;99.90;;;;;;4978883;28;20129;-65
2022/06/22 05:49:48;;;;;;;14.88;11.07;;;13.50;99.90;;;;;;4978569;28;20043;-65
2022/06/22 05:52:21;;;;;;;16.05;9.85;;;13.60;99.90;;;;;;4978763;28;20355;-65
2022/06/22 05:54:54;;;;;;;15.77;9.63;;;13.70;99.90;;;;;;4975603;28;20101;-64
2022/06/22 05:57:29;;;;;;;14.90;10.70;;;13.80;99.90;;;;;;4959462;29;20109;-65
2022/06/22 06:00:09;;;;;;;13.52;9.10;;;13.80;99.90;;;;;;4968108;28;20062;-65
2022/06/22 06:03:04;;;;;;;13.93;9.73;;;13.80;99.90;;;;;;4978306;28;20046;-64
2022/06/22 06:05:42;;;;;;;14.95;8.80;;;13.90;99.90;;;;;;4989474;28;20122;-65
2022/06/22 06:08:27;;;;;;;13.27;9.27;;;14.00;99.90;;;;;;4997359;28;20473;-64
2022/06/22 06:10:53;;;;;;;13.85;8.80;;;14.10;99.90;;;;;;4997616;28;20357;-65
2022/06/22 06:13:21;;;;;;;15.45;9.07;;;14.10;99.90;;;;;;4980600;28;20057;-64
2022/06/22 06:15:52;;;;;;;13.45;9.00;;;14.20;99.90;;;;;;4997227;28;20108;-65
2022/06/22 06:18:22;;;;;;;13.80;8.15;;;14.30;99.90;;;;;;4997555;28;20107;-65
2022/06/22 06:20:57;;;;;;;15.18;9.10;;;14.40;99.90;;;;;;4997653;28;20041;-64
2022/06/22 06:23:28;;;;;;;;;;;14.50;99.90;;;;;;4997509;28;20453;-65
2022/06/22 06:29:07;;;;;;;13.52;8.80;;;14.60;99.90;;;;;;4981846;28;20054;-65
2022/06/22 06:31:48;;;;;;;14.18;8.27;;;14.70;99.90;;;;;;4997553;28;20053;-65
2022/06/22 06:34:18;;;;;;;16.13;9.73;;;14.90;99.90;;;;;;4997200;28;20046;-65
2022/06/22 06:36:58;;;;;;;15.48;10.05;;;15.00;99.90;;;;;;4979899;28;20449;-65
2022/06/22 06:39:28;;;;;;;20.60;9.88;;;15.00;99.90;;;;;;4978013;28;20047;-65
2022/06/22 06:42:04;;;;;;;15.07;9.07;;;15.20;99.90;;;;;;4977240;28;20059;-65
2022/06/22 06:44:38;;;;;;;13.18;8.27;;;15.30;99.90;;;;;;4985397;28;20384;-65
2022/06/22 06:47:12;;;;;;;11.68;7.72;;;15.30;99.90;;;;;;4996988;28;20046;-65
2022/06/22 06:49:43;;;;;;;15.33;8.17;;;15.40;99.90;;;;;;4997336;28;20042;-65
2022/06/22 06:52:46;;;;;;;14.35;7.95;;;15.50;99.90;;;;;;4997106;28;20515;-65
2022/06/22 06:55:14;;;;;;;15.90;8.80;;;15.70;99.90;;;;;;4995850;28;20126;-65
2022/06/22 06:58:12;;;;;;;15.88;8.95;;;15.90;99.90;;;;;;4996335;28;20054;-65
2022/06/22 07:00:39;;;;;;;11.05;7.78;;;16.00;99.90;;;;;;4980279;28;20050;-65
2022/06/22 07:03:12;;;;;;;11.70;7.75;;;16.10;99.90;;;;;;4996354;28;20499;-65
2022/06/22 07:05:38;;;;;;;12.05;7.80;;;16.10;99.90;;;;;;4996024;28;20092;-65
2022/06/22 07:08:17;;;;;;;10.50;6.78;;;16.30;99.90;;;;;;4996690;28;20077;-65
2022/06/22 07:10:49;;;;;;;12.82;7.00;;;16.40;99.90;;;;;;4996668;28;20134;-65
2022/06/22 07:13:26;;;;;;;14.70;7.10;;;16.50;99.90;;;;;;4996828;28;20125;-65
2022/06/22 07:15:57;;;;;;;14.00;6.97;;;16.40;99.90;;;;;;4995966;28;20046;-65
2022/06/22 07:18:31;;;;;;;13.35;7.05;;;16.50;99.90;;;;;;4996662;28;20061;-65
2022/06/22 07:21:03;;;;;;;12.73;6.97;;;16.50;99.90;;;;;;4996555;28;20049;-65
2022/06/22 07:23:42;;;;;;;10.63;6.43;;;16.70;99.90;;;;;;4996611;28;20046;-65
2022/06/22 07:26:22;;;;;;;12.80;6.25;;;16.90;99.90;;;;;;4996121;28;20053;-65
2022/06/22 07:29:23;;;;;;;15.63;6.53;;;17.10;99.90;;;;;;4996234;28;20469;-65
2022/06/22 07:32:22;;;;;;;13.60;6.85;;;17.20;99.90;;;;;;4986206;28;20424;-65
2022/06/22 07:35:04;;;;;;;11.98;6.07;;;17.30;99.90;;;;;;4986684;28;20062;-65
2022/06/22 07:37:34;;;;;;;8.95;5.28;;;17.40;99.90;;;;;;4976815;28;20050;-66
2022/06/22 07:40:07;;;;;;;12.05;5.55;;;17.40;99.90;;;;;;4991939;28;20047;-66
2022/06/22 07:42:33;;;;;;;8.40;5.30;;;17.40;99.90;;;;;;4995831;28;20520;-65
2022/06/22 07:44:59;;;;;;;10.98;5.90;;;17.40;99.90;;;;;;4995920;28;20062;-65
2022/06/22 07:47:43;;;;;;;9.10;5.50;;;17.50;99.90;;;;;;4996105;28;20042;-65
2022/06/22 07:50:19;;;;;;;11.77;5.60;;;17.60;99.90;;;;;;4995766;28;20046;-65
2022/06/22 07:52:51;;;;;;;10.07;5.60;;;17.70;99.90;;;;;;4996248;28;20058;-66
2022/06/22 07:55:28;;;;;;;11.20;6.65;;;17.70;99.90;;;;;;4995722;28;20433;-66
2022/06/22 07:58:01;;;;;;;13.50;7.68;;;17.80;99.90;;;;;;4995071;28;20465;-66
2022/06/22 08:00:29;;;;;;;12.73;7.25;;;17.80;99.90;;;;;;4982598;28;20110;-66
2022/06/22 08:03:10;;;;;;;11.20;7.15;;;17.90;99.90;;;;;;4976515;28;20061;-65
2022/06/22 08:05:40;;;;;;;9.27;7.05;;;18.00;99.90;;;;;;4976490;28;20046;-66
2022/06/22 08:08:22;;;;;;;11.13;5.90;;;17.90;99.90;;;;;;4976062;28;20351;-65
2022/06/22 08:11:00;;;;;;;12.68;6.82;;;18.10;99.90;;;;;;4976294;28;20061;-66
2022/06/22 08:13:33;;;;;;;8.77;6.20;;;18.20;99.90;;;;;;4976139;28;20046;-66
2022/06/22 08:16:04;;;;;;;14.03;7.23;;;18.30;99.90;;;;;;4976317;28;20112;-66
2022/06/22 08:18:31;;;;;;;17.83;9.40;;;18.30;99.90;;;;;;4975863;28;20053;-66
2022/06/22 08:20:57;;;;;;;14.98;7.70;;;18.30;99.90;;;;;;4976377;28;20129;-66
2022/06/22 08:23:32;;;;;;;12.95;7.90;;;18.50;99.90;;;;;;4976205;28;20046;-66
2022/06/22 08:25:58;;;;;;;;;;;18.70;99.90;;;;;;4976514;28;20489;-66
2022/06/22 08:28:25;;;;;;;13.38;9.80;;;18.90;99.90;;;;;;4975555;28;19944;-66
2022/06/22 08:30:54;;;;;;;25.42;10.35;;;19.00;99.90;;;;;;4975874;28;20057;-66
2022/06/22 08:33:40;;;;;;;13.55;8.18;;;19.00;99.90;;;;;;4976559;28;20382;-66
2022/06/22 08:36:20;;;;;;;13.30;8.48;;;19.20;99.90;;;;;;4976275;28;20105;-66
2022/06/22 08:38:56;;;;;;;14.82;10.05;;;19.50;99.90;;;;;;4976116;28;20039;-67
2022/06/22 08:41:49;;;;;;;18.20;10.00;;;19.50;99.90;;;;;;4967764;28;20339;-66
2022/06/22 08:44:25;;;;;;;14.20;9.27;;;19.70;99.90;;;;;;4956469;29;20082;-66
2022/06/22 08:47:11;;;;;;;16.50;9.95;;;19.70;99.90;;;;;;4956536;29;20058;-66
2022/06/22 08:49:45;;;;;;;16.35;9.20;;;19.90;99.90;;;;;;4956240;29;20262;-66
2022/06/22 08:52:27;;;;;;;13.18;9.50;;;20.00;99.90;;;;;;4971122;28;20051;-66
2022/06/22 08:55:11;;;;;;;19.02;9.93;;;19.90;99.90;;;;;;4975720;28;20043;-66
2022/06/22 08:58:17;;;;;;;17.88;10.05;;;19.80;99.90;;;;;;4975754;28;20047;-66
2022/06/22 09:00:57;;;;;;;16.60;9.68;;;19.70;99.90;;;;;;4975757;28;20055;-66
2022/06/22 09:04:01;;;;;;;13.20;8.68;;;19.70;99.90;;;;;;4975800;28;20058;-66
2022/06/22 09:06:42;;;;;;;13.65;8.27;;;19.70;99.90;;;;;;4938308;29;20087;-67
2022/06/22 09:09:24;;;;;;;15.27;9.13;;;20.00;99.90;;;;;;4938966;29;20130;-66
2022/06/22 09:12:00;;;;;;;11.15;7.90;;;19.90;99.90;;;;;;4965883;28;20051;-66
2022/06/22 09:14:41;;;;;;;11.70;7.90;;;20.00;99.90;;;;;;4979180;28;20090;-66
2022/06/22 09:17:37;;;;;;;10.85;6.68;;;20.00;99.90;;;;;;4979320;28;20042;-66
2022/06/22 09:20:17;;;;;;;14.13;8.48;;;20.10;99.90;;;;;;4979594;28;20057;-66
2022/06/22 09:22:56;;;;;;;13.13;7.82;;;20.10;99.90;;;;;;4979070;28;20038;-67
2022/06/22 09:25:49;;;;;;;12.95;7.15;;;20.20;99.90;;;;;;4979165;28;20082;-66
2022/06/22 09:28:27;;;;;;;12.60;6.73;;;20.50;99.90;;;;;;4978479;28;20050;-66
2022/06/22 09:31:18;;;;;;;9.90;6.78;;;20.60;99.90;;;;;;4978551;28;20088;-66
2022/06/22 09:33:53;;;;;;;11.45;6.85;;;20.70;99.90;;;;;;4978780;28;20054;-67
2022/06/22 09:36:45;;;;;;;10.82;8.20;;;20.70;99.90;;;;;;4979111;28;20062;-66
2022/06/22 09:39:42;;;;;;;13.18;7.90;;;20.70;99.90;;;;;;4979186;28;20047;-66
2022/06/22 09:42:36;;;;;;;13.40;7.50;;;20.90;99.90;;;;;;4978452;28;20129;-67
2022/06/22 09:45:20;;;;;;;13.73;7.78;;;20.60;99.90;;;;;;4979311;28;20105;-67
2022/06/22 09:48:04;;;;;;;;;;;20.70;99.90;;;;;;4979214;28;20054;-67
2022/06/22 09:50:45;;;;;;;10.50;7.00;;;20.80;99.90;;;;;;4978137;28;19998;-66
2022/06/22 09:53:29;;;;;;;9.88;6.80;;;20.80;99.90;;;;;;4978942;28;20112;-66
2022/06/22 09:56:24;;;;;;;12.98;6.80;;;21.10;99.90;;;;;;4978699;28;20093;-66
2022/06/22 09:59:18;;;;;;;12.60;6.45;;;21.20;99.90;;;;;;4978486;28;20046;-67
2022/06/22 10:01:57;;;;;;;12.73;6.28;;;21.30;99.90;;;;;;4961074;28;20465;-67
2022/06/22 10:04:47;;;;;;;13.50;6.95;;;21.50;99.90;;;;;;4978643;28;20134;-67
2022/06/22 10:07:21;;;;;;;12.13;6.97;;;21.30;99.90;;;;;;4978071;28;20374;-67
2022/06/22 10:09:58;;;;;;;15.30;6.53;;;21.10;99.90;;;;;;4978746;28;20054;-67
2022/06/22 10:12:57;;;;;;;9.07;5.88;;;21.20;99.90;;;;;;4977941;28;20043;-66
2022/06/22 10:15:47;;;;;;;11.18;5.85;;;21.40;99.90;;;;;;4978291;28;20043;-66
2022/06/22 10:18:45;;;;;;;16.23;6.32;;;21.70;99.90;;;;;;4977359;28;20047;-66
2022/06/22 10:21:33;;;;;;;11.82;6.50;;;21.80;99.90;;;;;;4977581;28;20468;-67
2022/06/22 10:24:20;;;;;;;9.98;6.35;;;22.00;99.90;;;;;;4978059;28;20053;-67
2022/06/22 10:27:03;;;;;;;10.70;6.80;;;22.20;99.90;;;;;;4978395;28;20126;-67
2022/06/22 10:29:50;;;;;;;8.60;6.45;;;22.10;99.90;;;;;;4978246;28;20055;-67
2022/06/22 10:32:33;;;;;;;10.88;6.13;;;22.20;99.90;;;;;;4977071;28;20061;-67
2022/06/22 10:35:07;;;;;;;10.95;6.97;;;22.40;99.90;;;;;;4958556;29;20544;-67
2022/06/22 10:37:33;;;;;;;;;;;22.50;99.90;;;;;;4959109;29;20043;-67
2022/06/22 10:46:28;;;;;;;10.80;6.68;;;22.70;99.90;;;;;;4958597;28;19922;-67
2022/06/22 10:48:59;;;;;;;14.32;7.30;;;22.50;99.90;;;;;;4947838;29;20055;-67
2022/06/22 10:51:54;;;;;;;14.07;6.47;;;22.30;99.90;;;;;;4965829;28;20047;-67
2022/06/22 10:54:44;;;;;;;14.00;6.75;;;22.60;99.90;;;;;;4977754;28;20125;-67
2022/06/22 10:57:42;;;;;;;16.60;7.50;;;22.60;99.90;;;;;;4977641;28;20047;-67
2022/06/22 11:00:28;;;;;;;11.25;6.90;;;22.90;99.90;;;;;;4977667;28;20069;-67
2022/06/22 11:03:13;;;;;;;13.90;6.70;;;23.30;99.90;;;;;;4976842;28;20128;-67
2022/06/22 11:05:57;;;;;;;13.90;7.30;;;23.40;99.90;;;;;;4977609;28;20130;-67
2022/06/22 11:08:26;;;;;;;;;;;23.20;99.90;;;;;;4977777;28;20039;-67
2022/06/22 11:10:57;;;;;;;12.02;6.20;;;23.30;99.90;;;;;;4977366;28;19948;-67
2022/06/22 11:13:28;;;;;;;12.05;5.85;;;23.50;99.90;;;;;;4976665;28;20050;-67
2022/06/22 11:16:27;;;;;;;9.80;4.88;;;23.70;99.90;;;;;;4977110;28;20365;-67
2022/06/22 11:19:06;;;;;;;10.52;5.88;;;24.00;99.90;;;;;;4977286;28;20089;-67
2022/06/22 11:22:04;;;;;;;8.98;4.90;;;24.30;99.90;;;;;;4977073;28;20050;-67
2022/06/22 11:24:47;;;;;;;12.57;6.28;;;24.40;99.90;;;;;;4977171;28;20061;-67
2022/06/22 11:33:40;;;;;;;9.23;5.93;;;24.70;99.90;;;;;;4957604;29;20055;-67
2022/06/22 11:36:26;;;;;;;9.70;5.72;;;25.00;99.90;;;;;;4957792;29;20047;-67
2022/06/22 11:39:10;;;;;;;17.98;6.68;;;25.20;99.90;;;;;;4965572;28;20046;-67
2022/06/22 11:42:01;;;;;;;12.00;6.15;;;25.20;99.90;;;;;;4977075;28;20043;-68
2022/06/22 11:48:20;;;;;;;11.15;5.65;;;25.80;99.90;;;;;;4976557;28;20058;-67
2022/06/22 11:51:02;;;;;;;14.73;6.05;;;26.20;99.90;;;;;;4957364;29;20493;-68
2022/06/22 11:54:05;;;;;;;9.63;5.50;;;26.50;99.90;;;;;;4957191;29;20462;-67
2022/06/22 11:57:02;;;;;;;12.88;6.30;;;26.50;98.90;;;;;;4916177;29;20048;-67
2022/06/22 11:59:56;;;;;;;12.90;6.20;;;26.70;98.80;;;;;;4976004;28;20065;-67
2022/06/22 12:02:58;;;;;;;11.05;6.93;;;26.90;97.10;;;;;;4976706;28;20453;-68
2022/06/22 12:05:43;;;;;;;10.80;5.97;;;26.90;98.50;;;;;;4976534;28;20435;-68
2022/06/22 12:08:36;;;;;;;11.10;6.40;;;27.30;99.10;;;;;;4976477;28;20354;-68
2022/06/22 12:11:18;;;;;;;11.23;6.78;;;27.50;98.90;;;;;;4976379;28;20058;-68
2022/06/22 12:17:27;;;;;;;16.20;8.07;;;27.50;98.10;;;;;;4976241;28;20062;-68
2022/06/22 12:20:14;;;;;;;14.05;8.18;;;27.40;98.90;;;;;;4976257;28;20061;-68
2022/06/22 12:22:53;;;;;;;12.35;6.63;;;27.30;99.00;;;;;;4976238;28;20120;-68
2022/06/22 12:25:27;;;;;;;11.48;6.90;;;27.70;98.60;;;;;;4976076;28;20152;-68
2022/06/22 12:28:23;;;;;;;10.85;7.30;;;27.70;99.20;;;;;;4976127;28;20050;-68
2022/06/22 12:31:16;;;;;;;11.60;6.90;;;28.10;98.40;;;;;;4975670;28;20488;-68
2022/06/22 12:33:54;;;;;;;12.95;7.70;;;28.20;98.00;;;;;;4975736;28;20484;-68
2022/06/22 12:36:32;;;;;;;11.20;6.90;;;28.30;97.20;;;;;;4975401;28;20351;-68
2022/06/22 12:39:06;;;;;;;11.05;7.75;;;28.50;97.60;;;;;;4975501;28;20057;-68
2022/06/22 12:42:06;;;;;;;12.55;8.00;;;27.70;96.50;;;;;;4975600;28;20047;-68
2022/06/22 12:45:00;;;;;;;12.98;7.03;;;28.20;96.50;;;;;;4975639;28;20186;-68
2022/06/22 12:47:34;;;;;;;14.05;7.88;;;28.50;96.70;;;;;;4975625;28;20046;-68
2022/06/22 12:50:15;;;;;;;10.13;6.90;;;28.70;95.90;;;;;;4975791;28;20081;-69
2022/06/22 12:52:49;;;;;;;11.27;7.45;;;28.80;96.90;;;;;;4975708;28;20058;-68
2022/06/22 12:55:21;;;;;;;13.73;7.80;;;28.90;95.10;;;;;;4975208;28;20043;-68
2022/06/22 12:57:54;;;;;;;13.60;7.07;;;29.10;95.20;;;;;;4975788;28;20065;-68
2022/06/22 13:00:21;;;;;;;10.35;7.32;;;29.30;94.90;;;;;;4975779;28;20377;-68
2022/06/22 13:02:49;;;;;;;14.25;7.00;;;29.30;94.50;;;;;;4975791;28;20046;-68
2022/06/22 13:05:20;;;;;;;20.75;9.18;;;29.10;94.40;;;;;;4975174;28;20074;-68
2022/06/22 13:07:50;;;;;;;13.43;7.60;;;29.20;94.90;;;;;;4975821;28;20058;-68
2022/06/22 13:10:19;;;;;;;11.52;7.95;;;29.30;94.00;;;;;;4975143;28;20473;-69
2022/06/22 13:12:57;;;;;;;15.98;8.38;;;29.10;93.70;;;;;;4975629;28;20047;-68
2022/06/22 13:15:57;;;;;;;12.60;9.50;;;29.10;94.50;;;;;;4975021;28;20058;-68
2022/06/22 13:18:29;;;;;;;13.80;8.75;;;28.80;94.30;;;;;;4975847;28;20121;-68
2022/06/22 13:21:24;;;;;;;13.90;7.75;;;29.10;93.90;;;;;;4975676;28;20043;-68
2022/06/22 13:24:23;;;;;;;14.30;8.95;;;29.30;93.20;;;;;;4974349;28;20050;-68
2022/06/22 13:27:21;;;;;;;13.15;7.68;;;29.30;92.90;;;;;;4973516;28;20473;-68
2022/06/22 13:30:15;;;;;;;13.18;8.23;;;30.00;93.20;;;;;;4969146;28;20094;-66
2022/06/22 13:33:02;;;;;;;13.38;8.27;;;30.30;91.50;;;;;;4975411;28;20070;-66
2022/06/22 13:35:45;;;;;;;13.13;7.75;;;30.30;91.50;;;;;;4974759;28;20088;-68
2022/06/22 13:38:25;;;;;;;10.07;6.55;;;30.70;90.30;;;;;;4975435;28;20051;-69
2022/06/22 13:41:10;;;;;;;13.55;7.97;;;31.10;90.40;;;;;;4975517;28;20073;-68
2022/06/22 13:43:48;;;;;;;13.57;7.93;;;31.30;85.90;;;;;;4974608;28;20054;-68
2022/06/22 13:46:16;;;;;;;12.93;7.53;;;31.70;86.30;;;;;;4975305;28;20043;-69
2022/06/22 13:48:55;;;;;;;12.77;7.15;;;31.70;83.30;;;;;;4975643;28;20046;-69
2022/06/22 13:51:51;;;;;;;12.63;7.97;;;32.10;81.40;;;;;;4976655;28;20133;-69
2022/06/22 13:54:33;;;;;;;14.93;7.78;;;31.90;79.90;;;;;;4978105;28;20047;-69
2022/06/22 13:57:17;;;;;;;12.40;6.97;;;32.30;79.70;;;;;;4978784;28;20101;-68
2022/06/22 14:00:03;;;;;;;10.05;6.93;;;32.70;77.90;;;;;;4978825;28;20417;-68
2022/06/22 14:02:53;;;;;;;8.43;5.95;;;32.80;75.70;;;;;;4978380;28;20457;-68
2022/06/22 14:05:29;;;;;;;12.07;6.57;;;33.50;74.60;;;;;;4978078;28;20416;-68
2022/06/22 14:08:04;;;;;;;10.95;6.70;;;33.80;73.80;;;;;;4978699;28;20062;-68